Time;durP1;ratioP1;P1;durP2;ratioP2;P2;SDS_P1;SDS_P2;PMS_P1;PMS_P2;Temp;Humidity;BMP_temperature;BMP_pressure;BME280_temperature;BME280_humidity;BME280_pressure;Samples;Min_cycle;Max_cycle;Signal;HPM_P1;HPM_P2
2022/05/02 00:00:12;;;;;;;16.77;10.28;;;;;;;12.47;83.24;98382.55;1773042;79;28042;-87
2022/05/02 00:02:41;;;;;;;15.15;9.93;;;;;;;12.46;83.28;98384.80;1775663;80;28010;-87
2022/05/02 00:05:08;;;;;;;17.80;10.63;;;;;;;12.40;83.31;98381.34;1771332;80;28055;-86
2022/05/02 00:07:35;;;;;;;16.45;10.23;;;;;;;12.36;83.37;98385.17;1777046;79;28146;-86
2022/05/02 00:10:03;;;;;;;19.62;11.10;;;;;;;12.41;83.59;98376.93;1772523;79;28146;-87
2022/05/02 00:12:33;;;;;;;14.95;9.65;;;;;;;12.47;83.76;98372.52;1729770;81;28115;-87
2022/05/02 00:15:00;;;;;;;15.15;9.93;;;;;;;12.48;83.89;98372.88;1724913;81;28076;-86
2022/05/02 00:20:11;;;;;;;13.50;9.28;;;;;;;12.40;83.99;98374.78;1765469;80;28055;-86
2022/05/02 00:22:38;;;;;;;13.30;9.23;;;;;;;12.43;84.09;98378.97;1722309;81;29157;-86
2022/05/02 00:25:05;;;;;;;13.20;9.23;;;;;;;12.44;84.17;98372.27;1757058;80;28086;-86
2022/05/02 00:27:32;;;;;;;13.53;9.08;;;;;;;12.40;84.15;98379.19;1725745;81;28077;-86
2022/05/02 00:29:59;;;;;;;14.10;9.65;;;;;;;12.33;84.10;98377.52;1682389;83;28100;-87
2022/05/02 00:32:26;;;;;;;14.15;9.50;;;;;;;12.22;84.02;98377.52;1769036;79;28110;-87
2022/05/02 00:34:52;;;;;;;14.85;9.35;;;;;;;12.05;83.98;98376.22;1759326;79;28055;-86
2022/05/02 00:37:19;;;;;;;14.90;8.78;;;;;;;11.93;83.96;98385.02;1765816;80;28088;-86
2022/05/02 00:39:45;;;;;;;14.87;8.95;;;;;;;11.85;84.09;98377.35;1752668;80;28150;-86
2022/05/02 00:42:12;;;;;;;11.48;8.58;;;;;;;11.80;84.36;98377.70;1763435;80;28063;-86
2022/05/02 00:44:43;;;;;;;13.05;8.60;;;;;;;11.80;84.65;98376.39;1768569;80;28163;-86
2022/05/02 00:47:09;;;;;;;14.93;8.95;;;;;;;11.87;85.05;98376.77;1752324;79;28104;-86
2022/05/02 00:49:39;;;;;;;13.40;8.25;;;;;;;11.80;85.20;98380.33;1766165;80;28141;-86
2022/05/02 00:52:06;;;;;;;13.08;8.60;;;;;;;11.63;85.24;98368.92;1749051;80;28236;-86
2022/05/02 00:54:34;;;;;;;11.65;8.50;;;;;;;11.48;85.34;98375.32;1759749;80;28150;-85
2022/05/02 00:57:00;;;;;;;13.95;8.73;;;;;;;11.43;85.56;98373.52;1715493;81;28085;-86
2022/05/02 00:59:28;;;;;;;13.20;7.90;;;;;;;11.47;85.99;98376.27;1685263;83;28170;-86
2022/05/02 01:01:58;;;;;;;14.60;8.43;;;;;;;11.57;86.57;98372.84;1722026;82;28095;-86
2022/05/02 01:04:26;;;;;;;16.57;9.13;;;;;;;11.64;86.93;98371.44;1690144;83;28028;-86
2022/05/02 01:09:43;;;;;;;12.13;9.28;;;;;;;11.84;87.49;98367.34;1750600;80;28091;-86
2022/05/02 01:12:14;;;;;;;19.98;8.53;;;;;;;11.91;87.73;98371.17;1760850;79;28230;-87
2022/05/02 01:14:42;;;;;;;13.08;9.28;;;;;;;11.99;87.93;98362.73;1723204;81;28160;-87
2022/05/02 01:17:09;;;;;;;13.08;8.25;;;;;;;12.01;88.09;98359.49;1751085;80;28060;-87
2022/05/02 01:19:36;;;;;;;12.93;8.65;;;;;;;11.93;88.05;98355.33;1752918;80;28098;-86
2022/05/02 01:22:06;;;;;;;11.18;8.28;;;;;;;11.78;87.92;98356.03;1758228;80;28010;-87
2022/05/02 01:24:41;;;;;;;14.47;8.85;;;;;;;11.65;87.85;98351.31;1736145;80;28067;-87
2022/05/02 01:27:09;;;;;;;10.90;7.72;;;;;;;11.57;87.89;98349.73;1757830;79;28112;-87
2022/05/02 01:29:37;;;;;;;11.93;8.55;;;;;;;11.50;88.02;98349.38;1711367;81;28175;-87
2022/05/02 01:32:06;;;;;;;14.03;9.33;;;;;;;11.53;88.33;98345.67;1753495;80;28071;-87
2022/05/02 01:34:33;;;;;;;11.53;7.95;;;;;;;11.65;88.74;98340.83;1717992;81;28002;-87
2022/05/02 01:37:02;;;;;;;15.15;9.48;;;;;;;11.75;89.00;98344.45;1741761;80;28051;-86
2022/05/02 01:39:29;;;;;;;15.65;9.43;;;;;;;11.84;89.15;98336.38;1718069;81;28152;-86
2022/05/02 01:42:02;;;;;;;11.10;7.50;;;;;;;11.91;89.34;98337.08;1721227;80;28119;-86
2022/05/02 01:44:28;;;;;;;11.55;8.23;;;;;;;11.90;89.44;98335.41;1716370;81;28067;-86
2022/05/02 01:46:55;;;;;;;16.00;8.63;;;;;;;11.86;89.47;98333.98;1746087;80;28088;-86
2022/05/02 01:49:22;;;;;;;11.75;8.58;;;;;;;11.88;89.55;98340.42;1743688;80;28109;-86
2022/05/02 01:51:49;;;;;;;12.10;7.80;;;;;;;11.91;89.68;98330.52;1750528;80;28097;-86
2022/05/02 01:54:16;;;;;;;10.72;7.62;;;;;;;11.92;89.67;98327.43;1756450;80;28327;-86
2022/05/02 01:56:42;;;;;;;12.82;8.23;;;;;;;11.89;89.65;98328.98;1748404;80;28049;-85
2022/05/02 01:59:09;;;;;;;10.28;7.97;;;;;;;11.87;89.68;98326.47;1741084;80;28039;-86
2022/05/02 02:01:36;;;;;;;11.90;8.50;;;;;;;11.92;89.73;98330.89;1751413;80;28089;-86
2022/05/02 02:06:49;;;;;;;12.33;8.45;;;;;;;11.68;89.29;98337.95;1760140;80;28083;-86
2022/05/02 02:09:15;;;;;;;13.95;8.25;;;;;;;11.55;89.15;98336.76;1712140;81;28097;-86
2022/05/02 02:11:42;;;;;;;13.83;9.00;;;;;;;11.50;89.11;98340.67;1725219;81;28213;-86
2022/05/02 02:14:08;;;;;;;12.03;8.33;;;;;;;11.44;89.25;98338.52;1712273;81;28103;-86
2022/05/02 02:16:35;;;;;;;13.70;8.63;;;;;;;11.29;89.19;98339.19;1715572;81;28168;-86
2022/05/02 02:19:01;;;;;;;20.10;9.23;;;;;;;11.20;89.23;98331.98;1708056;81;28104;-86
2022/05/02 02:21:27;;;;;;;15.63;8.40;;;;;;;11.14;89.37;98338.98;1755539;80;28173;-86
2022/05/02 02:23:54;;;;;;;15.03;8.60;;;;;;;11.13;89.57;98336.84;1748128;80;28063;-86
2022/05/02 02:26:20;;;;;;;12.60;8.43;;;;;;;11.16;89.89;98334.48;1757868;79;28104;-86
2022/05/02 02:28:47;;;;;;;20.75;10.03;;;;;;;11.26;90.30;98332.37;1765577;80;28098;-86
2022/05/02 02:31:13;;;;;;;16.42;10.05;;;;;;;11.44;90.76;98331.48;1759984;80;28186;-87
2022/05/02 02:33:39;;;;;;;20.27;11.15;;;;;;;11.57;91.08;98334.00;1749592;80;28088;-85
2022/05/02 02:36:06;;;;;;;14.85;9.30;;;;;;;11.52;91.06;98341.38;1746398;80;28078;-86
2022/05/02 02:38:32;;;;;;;11.93;8.63;;;;;;;11.48;90.99;98338.63;1698899;81;28053;-86
2022/05/02 02:40:59;;;;;;;14.47;8.93;;;;;;;11.32;90.79;98338.48;1721757;81;28160;-86
2022/05/02 02:43:25;;;;;;;14.85;9.28;;;;;;;11.08;90.62;98334.20;1709615;81;28140;-86
2022/05/02 02:45:51;;;;;;;19.32;12.00;;;;;;;10.84;90.52;98338.98;1709948;81;28002;-86
2022/05/02 02:48:18;;;;;;;16.45;10.95;;;;;;;10.65;90.57;98337.31;1757755;80;28429;-86
2022/05/02 02:50:44;;;;;;;16.55;11.70;;;;;;;10.57;90.86;98331.81;1755924;80;28096;-86
2022/05/02 02:53:10;;;;;;;16.77;11.85;;;;;;;10.52;91.23;98333.08;1757394;80;28075;-86
2022/05/02 02:55:37;;;;;;;18.75;11.48;;;;;;;10.47;91.63;98338.14;1719712;80;28093;-86
2022/05/02 02:58:04;;;;;;;17.23;11.22;;;;;;;10.45;92.02;98336.12;1748343;80;27984;-86
2022/05/02 03:00:33;;;;;;;15.63;10.85;;;;;;;10.55;92.57;98335.47;1745871;80;28074;-87
2022/05/02 03:02:59;;;;;;;17.45;11.90;;;;;;;10.66;93.17;98336.84;1753482;80;28465;-87
2022/05/02 03:08:11;;;;;;;15.18;8.85;;;;;;;10.72;93.80;98340.34;1761398;80;28070;-87
2022/05/02 03:10:37;;;;;;;14.68;9.38;;;;;;;10.58;93.74;98333.95;1764421;80;28174;-86
2022/05/02 03:13:04;;;;;;;12.20;8.45;;;;;;;10.42;93.70;98342.03;1745055;80;28109;-85
2022/05/02 03:15:33;;;;;;;14.63;10.00;;;;;;;10.33;93.69;98350.06;1715043;81;28115;-86
2022/05/02 03:17:59;;;;;;;13.85;9.20;;;;;;;10.27;93.83;98346.56;1762484;80;28189;-86
2022/05/02 03:20:26;;;;;;;13.88;9.38;;;;;;;10.28;94.15;98343.48;1757276;80;28110;-86
2022/05/02 03:22:52;;;;;;;13.72;10.15;;;;;;;10.40;94.65;98343.94;1739908;81;28170;-86
2022/05/02 03:25:18;;;;;;;15.10;10.23;;;;;;;10.54;95.13;98341.64;1739448;81;28024;-86
2022/05/02 03:27:45;;;;;;;15.18;9.70;;;;;;;10.64;95.49;98342.65;1740112;80;28182;-86
2022/05/02 03:30:14;;;;;;;16.65;9.90;;;;;;;10.66;95.63;98338.16;1745390;80;28067;-86
2022/05/02 03:32:41;;;;;;;19.32;10.23;;;;;;;10.67;95.77;98341.14;1754350;80;28021;-86
2022/05/02 03:35:08;;;;;;;13.53;9.63;;;;;;;10.69;95.92;98337.45;1758119;80;28086;-86
2022/05/02 03:37:35;;;;;;;15.20;8.68;;;;;;;10.51;95.73;98333.55;1733880;81;27990;-86
2022/05/02 03:40:02;;;;;;;15.70;8.83;;;;;;;10.27;95.50;98333.49;1706365;81;28103;-86
2022/05/02 03:42:28;;;;;;;15.00;9.23;;;;;;;10.12;95.45;98332.39;1710536;81;28075;-85
2022/05/02 03:44:54;;;;;;;14.58;10.30;;;;;;;9.95;95.46;98341.40;1760347;79;28067;-86
2022/05/02 03:47:21;;;;;;;14.95;10.23;;;;;;;9.82;95.57;98337.97;1735857;81;28127;-86
2022/05/02 03:49:48;;;;;;;15.50;10.82;;;;;;;9.82;95.93;98335.36;1742636;81;28130;-86
2022/05/02 03:52:14;;;;;;;16.80;10.38;;;;;;;9.94;96.45;98339.72;1739007;80;28123;-86
2022/05/02 03:54:40;;;;;;;13.98;10.48;;;;;;;10.06;97.00;98346.73;1760301;80;28476;-86
2022/05/02 03:57:07;;;;;;;17.85;10.60;;;;;;;10.14;97.40;98341.81;1731835;80;28136;-86
2022/05/02 03:59:33;;;;;;;14.78;10.70;;;;;;;10.19;97.69;98339.75;1740069;80;28130;-86
2022/05/02 04:02:00;;;;;;;15.83;11.35;;;;;;;10.26;97.98;98345.36;1759014;80;28060;-86
2022/05/02 04:04:26;;;;;;;19.15;11.53;;;;;;;10.33;98.31;98343.53;1754349;80;43361;-86
2022/05/02 04:06:53;;;;;;;18.30;11.53;;;;;;;10.41;98.60;98333.38;1754867;80;28134;-87
2022/05/02 04:09:19;;;;;;;16.95;10.80;;;;;;;10.46;98.82;98337.81;1737323;80;43371;-87
2022/05/02 04:11:45;;;;;;;16.62;10.98;;;;;;;10.49;98.95;98340.66;1738787;80;43391;-87
2022/05/02 04:14:11;;;;;;;16.42;11.18;;;;;;;10.42;98.91;98338.95;1755337;80;43389;-87
2022/05/02 04:16:38;;;;;;;17.65;11.20;;;;;;;10.44;99.06;98338.38;1751131;80;28185;-87
2022/05/02 04:19:04;;;;;;;17.17;11.80;;;;;;;10.51;99.30;98337.95;1720973;81;28063;-86
2022/05/02 04:21:31;;;;;;;19.17;11.40;;;;;;;10.41;99.31;98341.70;1705900;81;28086;-86
2022/05/02 04:23:57;;;;;;;19.20;10.95;;;;;;;10.33;99.34;98341.38;1719674;81;28155;-86
2022/05/02 04:26:24;;;;;;;18.17;11.55;;;;;;;10.43;99.73;98341.93;1714227;81;28113;-85
2022/05/02 04:28:50;;;;;;;17.10;11.10;;;;;;;10.59;100.00;98351.30;1764129;79;28070;-85
2022/05/02 04:31:16;;;;;;;19.00;10.85;;;;;;;10.66;100.00;98343.39;1749346;80;28095;-87
2022/05/02 04:33:44;;;;;;;15.98;10.63;;;;;;;10.57;100.00;98341.44;1760079;79;28076;-86
2022/05/02 04:36:10;;;;;;;17.30;10.53;;;;;;;10.43;100.00;98341.09;1768015;80;28054;-87
2022/05/02 04:38:37;;;;;;;15.83;10.72;;;;;;;10.35;100.00;98344.73;1761848;80;28164;-87
2022/05/02 04:41:03;;;;;;;15.85;10.58;;;;;;;10.34;100.00;98347.82;1750093;80;28156;-86
2022/05/02 04:43:29;;;;;;;14.95;10.28;;;;;;;10.41;100.00;98342.53;1754283;80;28162;-86
2022/05/02 04:46:02;;;;;;;20.85;11.65;;;;;;;10.52;100.00;98344.39;1758250;80;28108;-87
2022/05/02 04:48:28;;;;;;;14.40;9.80;;;;;;;10.60;100.00;98347.75;1759614;80;28135;-87
2022/05/02 04:50:54;;;;;;;24.32;14.53;;;;;;;10.63;100.00;98348.86;1727028;81;28130;-87
2022/05/02 04:53:21;;;;;;;19.07;12.37;;;;;;;10.72;100.00;98349.50;1723893;81;28067;-86
2022/05/02 04:55:48;;;;;;;17.52;10.38;;;;;;;10.86;100.00;98350.63;1764604;80;28079;-86
2022/05/02 04:58:15;;;;;;;18.85;9.75;;;;;;;11.01;100.00;98343.00;1747742;80;28032;-86
2022/05/02 05:00:43;;;;;;;14.07;9.03;;;;;;;11.15;100.00;98348.05;1756875;80;28119;-86
2022/05/02 05:03:09;;;;;;;13.20;9.25;;;;;;;11.28;100.00;98344.06;1747548;80;28060;-87
2022/05/02 05:05:36;;;;;;;15.05;9.25;;;;;;;11.38;100.00;98349.45;1757579;80;28046;-86
2022/05/02 05:08:03;;;;;;;18.02;10.53;;;;;;;11.48;100.00;98347.80;1752401;80;28055;-86
2022/05/02 05:10:29;;;;;;;19.17;10.15;;;;;;;11.61;100.00;98349.88;1749700;80;28134;-86
2022/05/02 05:13:00;;;;;;;13.75;9.03;;;;;;;11.78;100.00;98358.66;1762076;80;28194;-85
2022/05/02 05:18:50;;;;;;;23.90;12.30;;;;;;;11.90;100.00;98343.27;1778091;80;28114;-85
2022/05/02 05:21:46;;;;;;;19.75;10.50;;;;;;;12.02;100.00;98343.65;1771605;80;28121;-86
2022/05/02 05:24:34;;;;;;;13.75;9.18;;;;;;;12.23;100.00;98345.08;1760318;79;28079;-86
2022/05/02 05:27:20;;;;;;;17.02;10.45;;;;;;;12.43;100.00;98339.13;1720504;81;28076;-85
2022/05/02 05:29:53;;;;;;;15.45;9.40;;;;;;;12.64;100.00;98346.25;1708906;83;28142;-85
2022/05/02 05:32:23;;;;;;;12.73;8.95;;;;;;;12.73;100.00;98351.59;1701794;83;28067;-86
2022/05/02 05:35:04;;;;;;;12.58;9.23;;;;;;;12.84;100.00;98347.63;1760002;80;28070;-86
2022/05/02 05:37:48;;;;;;;14.35;9.38;;;;;;;12.85;100.00;98346.67;1773525;80;28077;-85
2022/05/02 05:40:25;;;;;;;12.95;9.55;;;;;;;12.86;100.00;98343.58;1775201;79;28074;-86
2022/05/02 05:43:06;;;;;;;12.28;9.30;;;;;;;12.89;100.00;98345.47;1779961;79;28133;-86
2022/05/02 05:45:52;;;;;;;16.65;9.98;;;;;;;12.91;100.00;98339.63;1730818;81;28089;-85
2022/05/02 05:48:28;;;;;;;16.12;9.98;;;;;;;13.01;100.00;98335.77;1666697;84;28114;-85
2022/05/02 05:51:25;;;;;;;13.65;10.28;;;;;;;13.04;100.00;98340.75;1756509;80;28060;-85
2022/05/02 05:54:05;;;;;;;12.68;9.15;;;;;;;13.16;100.00;98333.22;1754358;80;28076;-85
2022/05/02 05:56:44;;;;;;;12.98;8.68;;;;;;;13.34;100.00;98334.34;1689710;80;28094;-86
2022/05/02 05:59:14;;;;;;;13.55;8.43;;;;;;;13.50;100.00;98339.16;1759068;80;28154;-87
2022/05/02 06:01:47;;;;;;;11.55;8.08;;;;;;;13.58;100.00;98338.54;1753821;80;28133;-86
2022/05/02 06:04:16;;;;;;;13.35;9.30;;;;;;;13.65;100.00;98328.67;1724275;80;28057;-86
2022/05/02 06:06:47;;;;;;;11.73;8.65;;;;;;;13.66;100.00;98338.23;1758487;80;28083;-87
2022/05/02 06:09:15;;;;;;;11.73;8.10;;;;;;;13.66;99.35;98332.14;1727910;81;27994;-86
2022/05/02 06:11:45;;;;;;;13.60;8.15;;;;;;;13.67;98.77;98339.08;1738329;81;28176;-85
2022/05/02 06:14:14;;;;;;;14.18;9.53;;;;;;;13.68;98.19;98341.59;1727377;81;28055;-85
2022/05/02 06:19:28;;;;;;;11.12;9.15;;;;;;;13.74;96.92;98339.76;1722028;81;28077;-84
2022/05/02 06:21:56;;;;;;;15.25;9.75;;;;;;;13.77;96.61;98344.75;1717925;80;28040;-86
2022/05/02 06:24:28;;;;;;;12.53;9.25;;;;;;;13.77;96.27;98339.97;1716406;81;28100;-86
2022/05/02 06:26:55;;;;;;;13.83;9.45;;;;;;;13.82;96.09;98345.19;1673557;83;28143;-86
2022/05/02 06:29:23;;;;;;;13.70;9.78;;;;;;;13.89;95.79;98338.94;1674859;83;28005;-86
2022/05/02 06:31:53;;;;;;;14.53;9.58;;;;;;;13.88;95.13;98341.20;1654716;84;28085;-86
2022/05/02 06:34:25;;;;;;;19.32;11.22;;;;;;;13.82;94.23;98342.56;1719551;81;28056;-86
2022/05/02 06:37:10;;;;;;;14.33;9.33;;;;;;;13.88;93.82;98335.95;1715952;81;28158;-85
2022/05/02 06:39:52;;;;;;;14.03;10.25;;;;;;;13.95;93.50;98342.84;1714618;81;28137;-86
2022/05/02 06:42:45;;;;;;;13.80;9.83;;;;;;;14.04;93.44;98340.25;1724406;81;28082;-85
2022/05/02 06:45:14;;;;;;;13.65;9.78;;;;;;;14.15;93.46;98336.70;1638112;83;28220;-86
2022/05/02 06:48:01;;;;;;;14.60;9.48;;;;;;;14.18;93.08;98344.35;1702557;83;28070;-86
2022/05/02 06:50:31;;;;;;;14.58;10.30;;;;;;;14.25;92.72;98345.47;1701018;82;28119;-85
2022/05/02 06:53:33;;;;;;;14.93;10.53;;;;;;;14.25;92.12;98341.04;1704625;83;28073;-86
2022/05/02 06:56:06;;;;;;;14.43;10.60;;;;;;;14.30;91.66;98341.12;1717530;81;28097;-85
2022/05/02 06:59:08;;;;;;;14.18;10.75;;;;;;;14.39;91.26;98339.89;1687684;81;28195;-85
2022/05/02 07:01:50;;;;;;;13.22;9.68;;;;;;;14.44;90.91;98336.38;1721601;81;28214;-86
2022/05/02 07:04:23;;;;;;;13.62;10.48;;;;;;;14.47;90.40;98341.36;1720381;81;28108;-86
2022/05/02 07:07:02;;;;;;;15.83;10.00;;;;;;;14.53;90.10;98339.52;1720559;81;28096;-87
2022/05/02 07:09:40;;;;;;;12.93;9.63;;;;;;;14.65;90.06;98340.24;1716871;81;28104;-87
2022/05/02 07:12:17;;;;;;;14.23;9.85;;;;;;;14.80;89.92;98345.95;1724985;81;28132;-87
2022/05/02 07:14:56;;;;;;;11.75;9.55;;;;;;;14.90;89.73;98343.68;1738733;79;28098;-87
2022/05/02 07:17:41;;;;;;;12.35;9.05;;;;;;;14.97;89.44;98346.61;1710712;81;28075;-88
2022/05/02 07:20:13;;;;;;;14.65;8.75;;;;;;;15.06;89.12;98353.20;1720222;81;28156;-87
2022/05/02 07:22:46;;;;;;;13.28;9.48;;;;;;;15.15;88.92;98346.30;1742890;80;28073;-87
2022/05/02 07:25:14;;;;;;;14.23;9.00;;;;;;;15.15;88.26;98355.52;1723373;81;28182;-87
2022/05/02 07:28:01;;;;;;;9.10;7.35;;;;;;;15.19;87.86;98353.43;1749320;81;28048;-86
2022/05/02 07:30:30;;;;;;;13.15;8.43;;;;;;;15.14;86.97;98351.70;1711804;80;28144;-87
2022/05/02 07:32:57;;;;;;;9.98;7.78;;;;;;;15.07;85.82;98356.20;1709853;80;28089;-86
2022/05/02 07:35:24;;;;;;;11.57;8.23;;;;;;;14.96;84.75;98337.03;1758713;80;28015;-86
2022/05/02 07:37:53;;;;;;;10.35;7.78;;;;;;;15.11;84.20;98348.03;1729983;81;28152;-87
2022/05/02 07:40:21;;;;;;;11.95;8.00;;;;;;;15.18;84.03;98344.69;1728492;81;28092;-86
2022/05/02 07:42:48;;;;;;;13.18;8.15;;;;;;;15.27;83.39;98349.16;1716624;81;28180;-87
2022/05/02 07:45:17;;;;;;;14.10;7.53;;;;;;;15.29;82.88;98345.03;1719437;81;28072;-87
2022/05/02 07:47:47;;;;;;;10.03;7.58;;;;;;;15.38;82.75;98343.70;1764632;80;28007;-87
2022/05/02 07:50:17;;;;;;;11.25;7.85;;;;;;;15.47;82.59;98343.38;1721964;81;28100;-86
2022/05/02 07:52:45;;;;;;;11.83;8.10;;;;;;;15.56;82.17;98345.19;1726019;81;28002;-88
2022/05/02 07:55:14;;;;;;;10.28;7.17;;;;;;;15.66;81.80;98341.22;1714990;81;28109;-87
2022/05/02 07:57:42;;;;;;;11.05;8.18;;;;;;;15.79;81.63;98345.72;1764241;80;28059;-86
2022/05/02 08:00:12;;;;;;;10.35;7.40;;;;;;;15.79;80.70;98347.87;1761181;80;28075;-88
2022/05/02 08:02:46;;;;;;;11.83;8.88;;;;;;;15.79;79.88;98337.80;1761969;80;28071;-87
2022/05/02 08:05:12;;;;;;;9.80;7.08;;;;;;;15.84;79.58;98336.41;1722142;81;28120;-88
2022/05/02 08:07:44;;;;;;;10.23;7.40;;;;;;;15.96;79.58;98340.20;1756337;80;28121;-88
2022/05/02 08:10:20;;;;;;;16.62;9.23;;;;;;;16.02;78.76;98340.95;1763071;80;28144;-88
2022/05/02 08:12:59;;;;;;;11.35;8.58;;;;;;;15.99;77.80;98335.45;1721148;81;28016;-87
2022/05/02 08:15:29;;;;;;;12.33;8.53;;;;;;;16.09;77.66;98336.25;1731187;81;28064;-87
2022/05/02 08:18:02;;;;;;;11.73;8.75;;;;;;;16.22;77.72;98335.94;1754257;80;28093;-87
2022/05/02 08:20:53;;;;;;;11.18;8.30;;;;;;;16.36;77.74;98333.33;1758829;79;28095;-87
2022/05/02 08:29:38;;;;;;;12.70;7.20;;;;;;;16.63;76.73;98334.20;1753198;80;28149;-87
2022/05/02 08:32:11;;;;;;;7.58;6.00;;;;;;;16.73;75.91;98328.85;1736455;81;28015;-87
2022/05/02 08:34:44;;;;;;;13.35;8.40;;;;;;;16.85;75.56;98324.20;1733166;81;28093;-87
2022/05/02 08:37:47;;;;;;;8.35;7.17;;;;;;;16.92;74.88;98323.43;1739113;81;28081;-87
2022/05/02 08:40:51;;;;;;;9.45;6.70;;;;;;;17.07;74.52;98320.60;1729405;81;28152;-87
2022/05/02 08:43:43;;;;;;;11.90;7.37;;;;;;;17.22;74.01;98318.28;1733196;81;28141;-88
2022/05/02 08:46:37;;;;;;;10.13;6.92;;;;;;;17.23;72.49;98315.15;1768329;80;28190;-87
2022/05/02 08:49:36;;;;;;;12.80;9.28;;;;;;;17.28;71.95;98318.17;1777266;79;28211;-88
2022/05/02 08:52:23;;;;;;;9.55;7.30;;;;;;;17.37;71.42;98313.27;1715638;82;28080;-89
2022/05/02 08:55:26;;;;;;;11.05;7.65;;;;;;;17.42;71.08;98307.03;1768593;80;28051;-88
2022/05/02 08:58:13;;;;;;;12.80;8.73;;;;;;;17.50;70.94;98307.11;1733055;81;28077;-88
2022/05/02 09:01:06;;;;;;;8.18;5.62;;;;;;;17.61;70.73;98301.61;1730758;81;28106;-87
2022/05/02 09:03:56;;;;;;;9.55;6.60;;;;;;;17.73;70.50;98294.25;1713366;82;28005;-88
2022/05/02 09:06:49;;;;;;;10.18;7.67;;;;;;;17.88;70.07;98295.33;1730682;80;28093;-88
2022/05/02 09:09:25;;;;;;;6.40;5.80;;;;;;;18.03;69.80;98287.63;1778528;80;28130;-88
2022/05/02 09:12:30;;;;;;;7.20;5.53;;;;;;;18.14;69.13;98295.30;1734648;81;28172;-88
2022/05/02 09:15:32;;;;;;;7.50;4.90;;;;;;;18.12;67.43;98289.32;1719323;81;28166;-87
2022/05/02 09:18:29;;;;;;;5.12;4.25;;;;;;;18.15;65.44;98290.34;1747563;80;28079;-87
2022/05/02 09:21:08;;;;;;;6.83;4.87;;;;;;;18.19;64.54;98284.56;1745916;80;28147;-88
2022/05/02 09:24:10;;;;;;;7.92;5.15;;;;;;;18.14;62.39;98282.06;1708021;81;28093;-88
2022/05/02 09:26:52;;;;;;;7.80;5.20;;;;;;;18.15;61.64;98284.56;1705593;82;28150;-88
2022/05/02 09:29:37;;;;;;;5.90;4.92;;;;;;;18.26;61.25;98276.82;1751321;80;28085;-88
2022/05/02 09:32:19;;;;;;;7.55;5.55;;;;;;;18.39;60.85;98285.97;1754259;80;28046;-88
2022/05/02 09:35:00;;;;;;;9.60;6.55;;;;;;;18.42;60.08;98280.86;1751771;80;28178;-88
2022/05/02 09:37:41;;;;;;;5.33;4.12;;;;;;;18.42;59.10;98278.21;1749728;80;28092;-88
2022/05/02 09:40:13;;;;;;;6.30;5.35;;;;;;;18.42;57.92;98280.86;1705174;83;28195;-88
2022/05/02 09:43:07;;;;;;;8.18;6.50;;;;;;;18.49;57.44;98277.91;1736964;80;28083;-88
2022/05/02 09:52:16;;;;;;;8.23;5.30;;;;;;;18.82;56.09;98269.55;1752124;80;28079;-88
2022/05/02 09:58:04;;;;;;;9.58;5.22;;;;;;;19.05;55.34;98275.89;1748786;80;28005;-88
2022/05/02 10:03:25;;;;;;;5.00;4.50;;;;;;;19.00;53.19;98266.77;1725763;80;28171;-88
2022/05/02 10:06:05;;;;;;;;;;;;;;;19.04;52.78;98254.33;1746104;80;21852;-88
2022/05/02 10:08:38;;;;;;;;;;;;;;;19.13;52.67;98263.14;1757172;80;26057;-89
2022/05/02 10:11:08;;;;;;;;;;;;;;;19.09;51.83;98256.52;1766658;80;25265;-89
2022/05/02 10:13:58;;;;;;;;;;;;;;;19.07;51.08;98248.72;1757155;80;20276;-88
2022/05/02 10:16:34;;;;;;;;;;;;;;;19.08;50.56;98240.27;1757443;80;24811;-89
2022/05/02 10:19:08;;;;;;;;;;;;;;;19.16;50.49;98238.92;1760843;80;21977;-88
2022/05/02 10:21:55;;;;;;;;;;;;;;;19.22;50.31;98235.12;1752403;80;26033;-89
2022/05/02 10:24:26;;;;;;;;;;;;;;;19.25;49.75;98232.64;1755978;80;24409;-89
2022/05/02 10:26:59;;;;;;;;;;;;;;;19.24;49.10;98232.30;1765036;80;20217;-89
2022/05/02 10:29:44;;;;;;;;;;;;;;;19.19;48.30;98220.04;1753759;80;24731;-88
2022/05/02 10:32:20;;;;;;;;;;;;;;;19.25;48.30;98218.05;1753684;80;21967;-88
2022/05/02 10:34:46;;;;;;;;;;;;;;;19.43;48.44;98206.73;1754464;80;26204;-88
2022/05/02 10:37:13;;;;;;;;;;;;;;;19.52;48.28;98200.46;1758488;80;24394;-89
2022/05/02 10:39:47;;;;;;;;;;;;;;;19.61;48.14;98202.09;1751860;80;20202;-88
2022/05/02 10:42:20;;;;;;;;;;;;;;;19.70;47.96;98203.38;1757312;80;25391;-89
2022/05/02 10:44:51;;;;;;;;;;;;;;;19.76;47.92;98204.03;1755089;80;21839;-89
2022/05/02 10:47:18;;;;;;;;;;;;;;;19.68;47.12;98201.42;1761175;80;26145;-88
2022/05/02 10:50:05;;;;;;;;;;;;;;;19.69;47.04;98204.41;1763979;80;25182;-89
2022/05/02 10:52:48;;;;;;;;;;;;;;;19.75;46.84;98203.70;1749417;80;20202;-89
2022/05/02 10:55:34;;;;;;;;;;;;;;;19.63;45.90;98201.44;1758034;80;24955;-89
2022/05/02 10:58:02;;;;;;;;;;;;;;;19.55;45.34;98200.11;1749619;80;22106;-88
2022/05/02 11:00:33;;;;;;;;;;;;;;;19.53;45.12;98203.42;1771313;80;26107;-88
2022/05/02 11:03:13;;;;;;;;;;;;;;;19.62;45.27;98191.80;1740373;80;24534;-88
2022/05/02 11:05:57;;;;;;;;;;;;;;;19.76;45.25;98185.45;1742482;80;20202;-89
2022/05/02 11:08:43;;;;;;;;;;;;;;;19.82;45.07;98185.59;1753399;80;24813;-89
2022/05/02 11:11:11;;;;;;;;;;;;;;;19.92;45.00;98186.22;1754021;79;22060;-89
2022/05/02 11:13:39;;;;;;;;;;;;;;;19.95;44.76;98188.55;1758166;80;26126;-89
2022/05/02 11:16:07;;;;;;;;;;;;;;;19.94;44.27;98192.70;1753294;80;24532;-89
2022/05/02 11:21:30;;;;;;;;;;;;;;;19.99;43.87;98192.51;1763857;80;25420;-89
2022/05/02 11:23:58;;;;;;;;;;;;;;;19.92;42.96;98188.88;1761180;80;22314;-88
2022/05/02 11:26:46;;;;;;;;;;;;;;;19.90;42.66;98187.41;1728409;80;25810;-88
2022/05/02 11:29:23;;;;;;;;;;;;;;;19.88;42.52;98185.41;1709677;80;25008;-88
2022/05/02 11:31:50;;;;;;;;;;;;;;;19.99;42.61;98180.55;1752528;80;20387;-88
2022/05/02 11:34:33;;;;;;;;;;;;;;;20.17;42.86;98178.16;1752172;80;25456;-89
2022/05/02 11:37:00;;;;;;;;;;;;;;;20.36;43.11;98173.25;1764798;80;21935;-89
2022/05/02 11:39:34;;;;;;;;;;;;;;;20.53;43.03;98167.83;1767018;80;26086;-89
2022/05/02 11:42:03;;;;;;;;;;;;;;;20.56;42.75;98171.48;1754879;80;24556;-89
2022/05/02 11:44:32;;;;;;;;;;;;;;;20.48;42.15;98170.19;1747474;80;20245;-88
2022/05/02 11:47:02;;;;;;;;;;;;;;;20.47;41.82;98166.70;1758393;80;24798;-88
2022/05/02 11:49:42;;;;;;;;;;;;;;;20.45;41.49;98166.91;1753131;80;22080;-87
2022/05/02 11:52:14;;;;;;;;;;;;;;;20.37;41.17;98165.61;1755422;80;26148;-88
2022/05/02 11:54:40;;;;;;;;;;;;;;;20.29;41.05;98161.63;1758056;80;24624;-88
2022/05/02 11:57:25;;;;;;;;;;;;;;;20.20;40.65;98167.16;1733270;81;20257;-88
2022/05/02 11:59:53;;;;;;;;;;;;;;;20.17;40.42;98166.20;1746685;80;24794;-88
2022/05/02 12:02:39;;;;;;;;;;;;;;;20.26;40.55;98160.66;1755975;80;22056;-88
2022/05/02 12:05:07;;;;;;;;;;;;;;;20.39;40.61;98164.11;1750658;80;26037;-88
2022/05/02 12:07:35;;;;;;;;;;;;;;;20.58;40.59;98162.81;1751517;80;25074;-88
2022/05/02 12:10:02;;;;;;;;;;;;;;;20.58;40.29;98151.67;1745061;80;20276;-88
2022/05/02 12:12:31;;;;;;;;;;;;;;;20.63;40.31;98154.63;1757083;80;25487;-88
2022/05/02 12:15:01;;;;;;;;;;;;;;;20.76;40.42;98156.20;1759520;80;21955;-87
2022/05/02 12:17:27;;;;;;;;;;;;;;;20.75;40.05;98147.89;1762312;80;25576;-88
2022/05/02 12:19:53;;;;;;;;;;;;;;;20.66;39.89;98150.80;1752799;80;24633;-88
2022/05/02 12:22:24;;;;;;;;;;;;;;;20.47;39.41;98146.77;1766173;80;20256;-88
2022/05/02 12:24:54;;;;;;;5.05;3.00;;;;;;;20.39;39.28;98143.67;1760486;80;24760;-88
2022/05/02 12:27:22;;;;;;;;;;;;;;;20.39;39.02;98143.67;1740214;80;28056;-88
2022/05/02 12:29:58;;;;;;;5.20;3.50;;;;;;;20.39;38.76;98146.34;1754711;80;26150;-88
2022/05/02 12:32:25;;;;;;;;;;;;;;;20.36;38.59;98137.87;1761883;80;28221;-88
2022/05/02 12:34:54;;;;;;;;;;;;;;;20.36;38.60;98140.02;1765853;80;20275;-88
2022/05/02 12:37:28;;;;;;;;;;;;;;;20.31;38.50;98130.89;1763547;80;24817;-87
2022/05/02 12:39:59;;;;;;;;;;;;;;;20.17;38.37;98125.84;1764753;80;22807;-88
2022/05/02 12:42:27;;;;;;;;;;;;;;;20.05;38.21;98128.56;1762784;80;26076;-89